Orbital elements of COSMOS 2251 DEB
| Launched | 15 June 1993 |
| Flight ended | – |
| Launch site | Plesetsk Missile and Space Complex, Russia |
| Owner | Commonwealth of Independent States (former USSR) |
| NORAD ID | 34613 |
| Date fetched |
Epoch osculation |
Inc. [°] |
Ecc. | RA asc node [hr] |
Arg Peri. [°] |
Mean anom [°] |
Mean motion [rev/day] |
Abs. mag |
| Date fetched |
Epoch osculation |
Inc. [°] |
Ecc. | RA asc node [hr] |
Arg Peri. [°] |
Mean anom [°] |
Mean motion [rev/day] |
Abs. mag |
| 2026 May 08 17:57 | 2026 May 05 03:28:52 | 73.9639 | 0.01137 | 1.1958 | 176.8282 | 338.1907 | 14.27305 | – |
| 2026 May 07 17:58 | 2026 May 05 03:28:52 | 73.9639 | 0.01137 | 1.1958 | 176.8282 | 338.1907 | 14.27305 | – |
| 2026 May 06 17:57 | 2026 May 05 03:28:52 | 73.9639 | 0.01137 | 1.1958 | 176.8282 | 338.1907 | 14.27305 | – |
| 2026 May 05 17:57 | 2026 May 05 03:28:52 | 73.9639 | 0.01137 | 1.1958 | 176.8282 | 338.1907 | 14.27305 | – |
| 2026 May 04 17:57 | 2026 Apr 30 12:33:03 | 73.9640 | 0.01138 | 1.7561 | 186.3303 | 338.1907 | 14.27305 | – |
| 2026 May 03 17:57 | 2026 Apr 30 12:33:03 | 73.9640 | 0.01138 | 1.7561 | 186.3303 | 338.1907 | 14.27305 | – |
| 2026 May 02 17:57 | 2026 Apr 30 12:33:03 | 73.9640 | 0.01138 | 1.7561 | 186.3303 | 338.1907 | 14.27305 | – |
| 2026 May 01 17:56 | 2026 Apr 30 12:33:03 | 73.9640 | 0.01138 | 1.7561 | 186.3303 | 338.1907 | 14.27305 | – |
| 2026 Apr 30 17:56 | 2026 Apr 30 12:33:03 | 73.9640 | 0.01138 | 1.7561 | 186.3303 | 338.1907 | 14.27305 | – |
| 2026 Apr 29 17:57 | 2026 Apr 24 04:40:17 | 73.9638 | 0.01141 | 2.5232 | 199.3349 | 338.1907 | 14.27305 | – |
| 2026 Apr 28 17:56 | 2026 Apr 24 04:40:17 | 73.9638 | 0.01141 | 2.5232 | 199.3349 | 338.1907 | 14.27305 | – |
| 2026 Apr 27 17:58 | 2026 Apr 24 04:40:17 | 73.9638 | 0.01141 | 2.5232 | 199.3349 | 338.1907 | 14.27305 | – |
| 2026 Apr 26 17:58 | 2026 Apr 24 04:40:17 | 73.9638 | 0.01141 | 2.5232 | 199.3349 | 338.1907 | 14.27305 | – |
| 2026 Apr 25 17:58 | 2026 Apr 24 04:40:17 | 73.9638 | 0.01141 | 2.5232 | 199.3349 | 338.1907 | 14.27305 | – |
| 2026 Apr 24 17:59 | 2026 Apr 24 04:40:17 | 73.9638 | 0.01141 | 2.5232 | 199.3349 | 338.1907 | 14.27305 | – |
| 2026 Apr 23 17:57 | 2026 Apr 17 06:30:24 | 73.9629 | 0.01144 | 3.3625 | 213.5342 | 338.1907 | 14.27305 | – |
| 2026 Apr 22 17:57 | 2026 Apr 17 06:30:24 | 73.9629 | 0.01144 | 3.3625 | 213.5342 | 338.1907 | 14.27305 | – |
| 2026 Apr 21 17:57 | 2026 Apr 17 06:30:24 | 73.9629 | 0.01144 | 3.3625 | 213.5342 | 338.1907 | 14.27305 | – |
| 2026 Apr 20 17:57 | 2026 Apr 17 06:30:24 | 73.9629 | 0.01144 | 3.3625 | 213.5342 | 338.1907 | 14.27305 | – |
| 2026 Apr 19 17:58 | 2026 Apr 17 06:30:24 | 73.9629 | 0.01144 | 3.3625 | 213.5342 | 338.1907 | 14.27305 | – |
| 2026 Apr 18 17:56 | 2026 Apr 12 03:04:18 | 73.9632 | 0.01147 | 3.9860 | 224.0708 | 338.1907 | 14.27305 | – |
| 2026 Apr 16 17:57 | 2026 Apr 12 03:04:18 | 73.9632 | 0.01147 | 3.9860 | 224.0708 | 338.1907 | 14.27305 | – |
| 2026 Apr 14 17:57 | 2026 Apr 12 03:04:18 | 73.9632 | 0.01147 | 3.9860 | 224.0708 | 338.1907 | 14.27305 | – |
| 2026 Apr 13 17:57 | 2026 Apr 12 03:04:18 | 73.9632 | 0.01147 | 3.9860 | 224.0708 | 338.1907 | 14.27305 | – |
| 2026 Apr 12 17:57 | 2026 Apr 08 08:52:31 | 73.9636 | 0.01150 | 4.4417 | 231.7439 | 338.1907 | 14.27305 | – |
| 2026 Apr 11 17:57 | 2026 Apr 08 08:52:31 | 73.9636 | 0.01150 | 4.4417 | 231.7439 | 338.1907 | 14.27305 | – |